Angelina, Brazil
Current Conditions -  °F | °C
As of 10:00 PM on Sunday 23 Nov 2014 (Local Time) from SBFL Reporting Station
Broken Clouds Broken Clouds  
Wind Chill: 72°   Ceiling: 4000
Heat Index: 72°   Visibility: 6mi
Dew Point: 61°   Wind: 3mph
Humidity: 69%   Direction: 200°SSW
Pressure: 30"   Gusts: NA
Location:  27.57°S, 48.99°W
Report Text: SBFL 240000Z 20003KT 9999 FEW025 BKN040 22/16 Q1016
Loading
Personal Weather Stations






























Interactive Weather Map New forecast layout! Learn more

10-Day Weather Forecast

Advertisements
Track Severe Weather on mobile